KERO2: Robert S. Kerr Lock & Dam & Reservoir (L&D 15)

Data processed at Sat Dec 09 2017 23:03


All information presented herein is the property of the government of the United States of America and may be revised or deleted at any time without prior notice.
Dissemination of this information without the expressed written consent of the Public Affairs Office, Tulsa District U.S. Army Corps of Engineers is strictly prohibited.
These data are gathered electronically and, as presented, have not undergone any form of quality control. These data are not guaranteed to be valid or correct.
Go to home page.
Go to station list.

Upstream stations:

Downstream station:
Previous Day
Next Day
Current Day
    
SHEF ID:       KERO2     Robert S. Kerr Lock & Dam
STATION TYPE:  NAVIGATION LOCK
Normal Pool:  Bottom =   458.00, Top =   460.00

               PRECIP ELEVATION   STORAGE   TW-ELEV    INFLOW   RELEASE  AIR-TEMP  WIND-DIRWIND-SPEED REL-HUMID SOLAR-RAD   VOLTAGE  BAT-LOAD
                   in        ft     ac-ft        ft       cfs       cfs         F       deg       mph         %      W/m2      volt      volt
              Ccp-Rev   Ccp-Rev   Ccp-Rev   Ccp-Rev  Regi-Rev  Regi-Rev   Ccp-Rev   Ccp-Rev   Ccp-Rev   Ccp-Rev   Ccp-Rev   Ccp-Rev   Ccp-Rev
(US/Central)
12/07 00:00      0.00    459.64    510174    412.34      5399         0     39.92    263.10      4.14     59.36      0.00     13.83     13.36
12/07 01:00      0.00    459.55    506295    413.02      9081     15400     39.45    269.80      5.08     59.10      0.00     13.84     13.36
12/07 02:00      0.00    459.62    509312    412.97      9633     15400     38.48    266.80      6.00     56.42      0.00     13.82     13.36
12/07 03:00      0.00    459.63    509743    412.88     10185     15400     38.80    300.90      5.55     52.69      0.00     13.84     13.36
12/07 04:00      0.00    459.64    510174    412.74     10731     15400     36.50    299.70      5.97     59.66      0.00     13.84     13.36
12/07 05:00      0.00    459.59    508019    412.67     11277     15400     34.52    306.40      7.34     69.12      0.00     13.82     13.36
12/07 06:00      0.00    459.67    511467    412.46     13412     15400     31.55    283.30      7.85     55.51      0.00     13.84     13.36
12/07 07:00      0.00    459.61    508881    411.32     21805         0     29.70    298.20      8.48     55.87      0.00     13.84     13.42
12/07 08:00      0.00    459.67    511467    412.15     21507         0     29.46    290.50      7.59     60.51     25.00     13.84     13.36
12/07 09:00      0.00    459.76    515346    411.63     19619         0     28.71    294.10     11.20     58.87    215.00     13.84     13.42
12/07 10:00      0.00    459.79    516639    411.55     17731         0     30.13    294.00     11.24     56.06    381.00     13.82     13.42
12/07 11:00      0.00    459.83    518363    411.89     11473         0     31.23    294.20      9.99     51.53    467.00     13.82     13.36
12/07 12:00      0.00    459.78    516208    411.56      2086         0     34.41    304.80      9.85     43.23    608.00     13.82     13.36
12/07 13:00      0.00    459.77    515777    411.74     13559         0     35.94    308.30     10.41     38.53    634.00     13.82     13.36
12/07 14:00      0.00    459.78    516208    411.69     13321         0     36.61    310.40     10.65     31.02    503.00     13.82     13.36
12/07 15:00      0.00    459.94    523104    411.68     12626         0     36.72    295.20      8.89     31.14    443.00     13.83     13.36
12/07 16:00      0.00    459.98    524828    411.76     12626         0     36.16    299.80      9.46     32.24    308.00     13.82     13.36
12/07 17:00      0.00    459.92    522242    412.54     12626     16700     35.08    311.10      8.78     32.85     70.00     13.83     13.36
12/07 18:00      0.00    459.94    523104    413.44     25350     21900     33.64    299.80      5.62     36.46      1.00     13.81     13.48
12/07 19:00      0.00    459.96    523966    413.64     25101     21900     32.00    284.60      5.12     40.31      0.00     13.80     13.36
12/07 20:00      0.00    459.94    523104    413.41     25309     21900     31.01    287.10      4.91     44.33      0.00     13.83     13.36
12/07 21:00      0.00    459.96    523966    413.39     25516     21900     30.02    278.00      4.09     45.62      0.00     13.82     13.42
12/07 22:00      0.00    459.84    518794    413.36     33025     21900     29.14    298.60      3.46     46.29      0.00     13.80     13.48
12/07 23:00      0.00    459.82    517932    413.32      8261     21900     28.92    287.30      4.60     47.02      0.00     13.82     13.36